createdAt,value
2022-08-23T00:01:20.390Z,26.75
2022-08-23T00:03:50.956Z,24.85
2022-08-23T00:06:19.640Z,21.88
2022-08-23T00:08:49.071Z,23.67
2022-08-23T00:11:33.921Z,23.52
2022-08-23T00:14:07.677Z,21.55
2022-08-23T00:16:36.297Z,21.60
2022-08-23T00:19:05.509Z,28.05
2022-08-23T00:21:33.354Z,22.65
2022-08-23T00:24:01.489Z,21.73
2022-08-23T00:26:48.580Z,20.45
2022-08-23T00:29:18.374Z,21.20
2022-08-23T00:31:46.700Z,20.10
2022-08-23T00:34:14.945Z,20.90
2022-08-23T00:36:44.905Z,19.20
2022-08-23T00:39:13.217Z,23.48
2022-08-23T00:41:41.393Z,26.52
2022-08-23T00:44:34.377Z,19.77
2022-08-23T00:47:18.852Z,21.08
2022-08-23T00:49:51.987Z,20.08
2022-08-23T00:52:26.198Z,18.35
2022-08-23T00:54:55.265Z,15.75
2022-08-23T00:57:23.906Z,16.05
2022-08-23T00:59:51.924Z,19.48
2022-08-23T01:02:21.582Z,16.98
2022-08-23T01:04:56.000Z,19.92
2022-08-23T01:07:37.616Z,17.10
2022-08-23T01:10:13.235Z,18.52
2022-08-23T01:12:54.001Z,18.48
2022-08-23T01:15:26.432Z,17.23
2022-08-23T01:18:03.039Z,26.27
2022-08-23T01:20:36.672Z,20.10
2022-08-23T01:23:11.342Z,19.70
2022-08-23T01:25:41.182Z,17.33
2022-08-23T01:28:09.310Z,16.88
2022-08-23T01:30:38.940Z,20.83
2022-08-23T01:33:08.234Z,15.85
2022-08-23T01:35:40.349Z,17.83
2022-08-23T01:40:36.522Z,19.92
2022-08-23T01:43:07.182Z,16.55
2022-08-23T01:45:35.752Z,19.73
2022-08-23T01:48:04.145Z,18.27
2022-08-23T01:50:32.795Z,19.50
2022-08-23T01:53:01.508Z,21.77
2022-08-23T01:55:29.618Z,19.17
2022-08-23T01:58:01.226Z,14.85
2022-08-23T02:00:33.997Z,20.10
2022-08-23T02:03:03.078Z,19.73
2022-08-23T02:05:31.652Z,16.60
2022-08-23T02:08:20.721Z,20.27
2022-08-23T02:10:48.893Z,17.08
2022-08-23T02:13:16.984Z,19.83
2022-08-23T02:15:51.092Z,18.05
2022-08-23T02:18:20.344Z,18.25
2022-08-23T02:20:50.466Z,25.23
2022-08-23T02:23:19.438Z,37.28
2022-08-23T02:25:47.596Z,30.27
2022-08-23T02:28:15.908Z,26.85
2022-08-23T02:30:47.476Z,29.77
2022-08-23T02:35:45.029Z,23.20
2022-08-23T02:38:13.767Z,21.23
2022-08-23T02:40:43.074Z,29.75
2022-08-23T02:43:12.182Z,35.05
2022-08-23T02:45:40.275Z,33.92
2022-08-23T02:48:10.741Z,29.65
2022-08-23T02:50:38.841Z,33.05
2022-08-23T02:53:06.630Z,39.83
2022-08-23T02:55:34.923Z,35.25
2022-08-23T02:58:02.854Z,35.08
2022-08-23T03:00:30.977Z,39.28
2022-08-23T03:02:59.015Z,36.03
2022-08-23T03:05:28.312Z,37.33
2022-08-23T03:07:56.147Z,37.33
2022-08-23T03:10:24.248Z,29.30
2022-08-23T03:12:53.295Z,30.63
2022-08-23T03:15:21.600Z,34.42
2022-08-23T03:17:49.933Z,34.25
2022-08-23T03:20:18.146Z,37.92
2022-08-23T03:22:48.369Z,41.55
2022-08-23T03:25:22.760Z,41.60
2022-08-23T03:27:50.545Z,46.38
2022-08-23T03:30:19.999Z,49.60
2022-08-23T03:32:48.953Z,52.85
2022-08-23T03:35:17.689Z,47.10
2022-08-23T03:37:47.176Z,53.67
2022-08-23T03:40:15.501Z,50.47
2022-08-23T03:42:43.373Z,60.30
2022-08-23T03:45:11.803Z,63.00
2022-08-23T03:47:40.245Z,52.97
2022-08-23T03:50:09.024Z,57.00
2022-08-23T03:52:36.778Z,56.22
2022-08-23T03:55:07.379Z,47.83
2022-08-23T03:57:35.488Z,50.58
2022-08-23T04:00:03.585Z,59.28
2022-08-23T04:02:31.918Z,57.90
2022-08-23T04:04:59.705Z,57.20
2022-08-23T04:07:27.934Z,58.63
2022-08-23T04:09:56.019Z,57.63
2022-08-23T04:12:25.161Z,58.90
2022-08-23T04:14:53.700Z,56.22
2022-08-23T04:17:22.084Z,60.90
2022-08-23T04:19:50.569Z,55.42
2022-08-23T04:22:19.749Z,59.35
2022-08-23T04:24:48.726Z,60.70
2022-08-23T04:27:17.069Z,54.88
2022-08-23T04:29:46.221Z,62.33
2022-08-23T04:32:15.095Z,56.42
2022-08-23T04:34:54.994Z,64.90
2022-08-23T04:37:23.355Z,63.63
2022-08-23T04:40:08.986Z,59.28
2022-08-23T04:42:37.156Z,61.40
2022-08-23T04:45:07.378Z,63.80
2022-08-23T04:47:39.208Z,58.35
2022-08-23T04:52:35.666Z,58.28
2022-08-23T04:55:04.177Z,54.40
2022-08-23T04:57:32.473Z,49.67
2022-08-23T05:00:00.580Z,60.38
2022-08-23T05:02:29.819Z,53.00
2022-08-23T05:04:57.956Z,53.33
2022-08-23T05:07:31.024Z,64.72
2022-08-23T05:10:12.673Z,64.88
2022-08-23T05:12:40.705Z,66.63
2022-08-23T05:15:10.234Z,63.67
2022-08-23T05:17:40.434Z,64.07
2022-08-23T05:20:10.636Z,66.13
2022-08-23T05:22:40.880Z,59.92
2022-08-23T05:25:09.803Z,56.45
2022-08-23T05:27:38.212Z,54.65
2022-08-23T05:30:08.613Z,55.78
2022-08-23T05:32:44.709Z,61.00
2022-08-23T05:35:12.751Z,65.07
2022-08-23T05:37:40.614Z,55.20
2022-08-23T05:40:09.759Z,48.95
2022-08-23T05:42:38.606Z,56.20
2022-08-23T05:45:07.956Z,43.63
2022-08-23T05:47:35.885Z,51.03
2022-08-23T05:50:05.831Z,52.50
2022-08-23T05:52:33.696Z,47.78
2022-08-23T05:55:02.649Z,53.83
2022-08-23T05:57:30.976Z,48.78
2022-08-23T05:59:58.781Z,50.00
2022-08-23T06:02:26.725Z,53.15
2022-08-23T06:04:57.453Z,48.25
2022-08-23T06:07:26.739Z,39.13
2022-08-23T06:09:55.445Z,41.00
2022-08-23T06:12:23.324Z,43.70
2022-08-23T06:14:51.496Z,50.53
2022-08-23T06:17:20.706Z,35.40
2022-08-23T06:19:48.881Z,31.30
2022-08-23T06:22:16.925Z,31.48
2022-08-23T06:24:46.337Z,35.65
2022-08-23T06:27:15.005Z,29.40
2022-08-23T06:29:43.086Z,29.27
2022-08-23T06:32:11.214Z,26.25
2022-08-23T06:34:39.289Z,30.80
2022-08-23T06:37:12.452Z,36.75
2022-08-23T06:39:40.759Z,32.78
2022-08-23T06:42:34.857Z,26.10
2022-08-23T06:45:00.388Z,29.90
2022-08-23T06:47:28.493Z,27.40
2022-08-23T06:49:57.625Z,27.23
2022-08-23T06:52:27.234Z,25.40
2022-08-23T06:54:55.342Z,23.80
2022-08-23T06:57:24.505Z,30.02
2022-08-23T06:59:52.609Z,28.02
2022-08-23T07:02:20.673Z,27.67
2022-08-23T07:04:53.750Z,28.85
2022-08-23T07:07:22.331Z,22.60
2022-08-23T07:09:50.151Z,21.30
2022-08-23T07:12:19.801Z,23.88
2022-08-23T07:14:50.103Z,23.90
2022-08-23T07:17:17.897Z,26.38
2022-08-23T07:19:45.789Z,25.70
2022-08-23T07:22:15.601Z,22.33
2022-08-23T07:24:43.932Z,25.38
2022-08-23T07:27:12.722Z,17.40
2022-08-23T07:29:41.420Z,17.90
2022-08-23T07:32:11.127Z,18.65
2022-08-23T07:34:38.922Z,15.48
2022-08-23T07:37:11.539Z,20.40
2022-08-23T07:39:43.941Z,19.40
2022-08-23T07:42:23.891Z,17.25
2022-08-23T07:44:53.316Z,17.55
2022-08-23T07:47:23.381Z,17.25
2022-08-23T07:49:51.927Z,21.13
2022-08-23T07:52:19.777Z,16.33
2022-08-23T07:54:48.571Z,16.75
2022-08-23T07:57:17.951Z,20.75
2022-08-23T07:59:45.913Z,18.90
2022-08-23T08:02:14.035Z,18.10
2022-08-23T08:04:43.990Z,15.02
2022-08-23T08:07:19.528Z,13.93
2022-08-23T08:09:49.538Z,14.05
2022-08-23T08:12:17.664Z,15.50
2022-08-23T08:14:48.101Z,11.35
2022-08-23T08:17:17.119Z,12.70
2022-08-23T08:19:46.707Z,16.17
2022-08-23T08:22:14.760Z,12.85
2022-08-23T08:24:43.549Z,12.40
2022-08-23T08:27:11.416Z,12.02
2022-08-23T08:29:39.405Z,12.32
2022-08-23T08:32:08.955Z,11.07
2022-08-23T08:34:42.169Z,10.68
2022-08-23T08:37:12.009Z,12.38
2022-08-23T08:39:45.557Z,10.48
2022-08-23T08:42:32.390Z,11.55
2022-08-23T08:45:03.894Z,13.50
2022-08-23T08:52:40.272Z,16.80
2022-08-23T08:55:12.958Z,15.23
2022-08-23T08:57:44.529Z,13.82
2022-08-23T09:00:16.991Z,13.50
2022-08-23T09:02:45.960Z,15.27
2022-08-23T09:05:16.482Z,14.43
2022-08-23T09:07:56.273Z,15.82
2022-08-23T09:10:41.041Z,19.85
2022-08-23T09:13:29.090Z,18.65
2022-08-23T09:16:05.098Z,18.95
2022-08-23T09:18:36.533Z,19.48
2022-08-23T09:21:08.697Z,17.08
2022-08-23T09:23:43.356Z,13.80
2022-08-23T09:26:23.078Z,14.80
2022-08-23T09:28:53.707Z,15.75
2022-08-23T09:31:39.127Z,14.07
2022-08-23T09:34:08.551Z,12.52
2022-08-23T09:36:39.125Z,13.93
2022-08-23T09:39:24.428Z,14.73
2022-08-23T09:41:59.836Z,14.95
2022-08-23T09:44:37.545Z,11.57
2022-08-23T09:47:07.902Z,12.60
2022-08-23T09:49:37.472Z,11.23
2022-08-23T09:52:21.940Z,11.00
2022-08-23T09:55:01.033Z,10.55
2022-08-23T09:57:31.282Z,11.80
2022-08-23T10:00:03.516Z,11.55
2022-08-23T10:02:35.331Z,9.88
2022-08-23T10:05:07.962Z,14.13
2022-08-23T10:07:45.681Z,12.65
2022-08-23T10:10:29.265Z,10.57
2022-08-23T10:12:59.018Z,15.07
2022-08-23T10:15:49.298Z,11.57
2022-08-23T10:18:27.690Z,11.48
2022-08-23T10:21:03.016Z,15.68
2022-08-23T10:23:45.475Z,14.65
2022-08-23T10:26:28.705Z,16.42
2022-08-23T10:29:21.426Z,15.30
2022-08-23T10:32:04.448Z,16.67
2022-08-23T10:34:47.183Z,17.58
2022-08-23T10:37:32.183Z,19.02
2022-08-23T10:40:04.582Z,17.50
2022-08-23T10:42:44.539Z,17.52
2022-08-23T10:45:22.564Z,16.02
2022-08-23T10:48:05.074Z,16.10
2022-08-23T10:50:42.697Z,15.90
2022-08-23T10:53:16.129Z,15.30
2022-08-23T10:56:02.953Z,15.68
2022-08-23T10:58:38.759Z,16.70
2022-08-23T11:01:08.234Z,17.23
2022-08-23T11:03:43.398Z,16.13
2022-08-23T11:06:40.369Z,16.30
2022-08-23T11:09:10.986Z,14.90
2022-08-23T11:11:45.956Z,14.90
2022-08-23T11:14:29.205Z,14.40
2022-08-23T11:17:00.388Z,13.60
2022-08-23T11:19:50.754Z,13.07
2022-08-23T11:22:26.617Z,13.65
2022-08-23T11:24:58.690Z,13.60
2022-08-23T11:27:39.284Z,14.77
2022-08-23T11:30:43.605Z,13.13
2022-08-23T11:33:19.707Z,13.88
2022-08-23T11:35:50.589Z,11.55
2022-08-23T11:38:38.942Z,11.47
2022-08-23T11:41:22.972Z,11.57
2022-08-23T11:44:22.394Z,13.38
2022-08-23T11:47:01.081Z,10.77
2022-08-23T11:50:06.449Z,14.15
2022-08-23T11:53:19.868Z,14.50
2022-08-23T11:56:12.364Z,12.98
2022-08-23T11:59:13.477Z,16.10
2022-08-23T12:01:43.373Z,14.27
2022-08-23T12:04:27.640Z,15.68
2022-08-23T12:07:02.885Z,13.80
2022-08-23T12:09:53.443Z,13.40
2022-08-23T12:12:28.341Z,13.82
2022-08-23T12:14:58.859Z,15.95
2022-08-23T12:17:55.563Z,15.30
2022-08-23T12:20:29.881Z,15.93
2022-08-23T12:23:13.147Z,17.50
2022-08-23T12:25:42.667Z,13.52
2022-08-23T12:28:32.225Z,18.30
2022-08-23T12:31:07.882Z,13.30
2022-08-23T12:33:52.640Z,15.07
2022-08-23T12:36:30.011Z,11.90
2022-08-23T12:39:07.580Z,11.80
2022-08-23T12:41:52.350Z,12.57
2022-08-23T12:44:22.452Z,12.20
2022-08-23T12:46:51.686Z,11.02
2022-08-23T12:49:28.888Z,9.70
2022-08-23T12:52:00.732Z,10.80
2022-08-23T12:57:11.590Z,11.55
2022-08-23T12:59:44.344Z,11.25
2022-08-23T13:02:19.558Z,17.70
2022-08-23T13:04:47.853Z,9.48
2022-08-23T13:07:22.098Z,10.15
2022-08-23T13:09:53.852Z,11.50
2022-08-23T13:12:24.345Z,10.68
2022-08-23T13:14:55.247Z,11.15
2022-08-23T13:17:32.633Z,10.60
2022-08-23T13:20:19.936Z,9.75
2022-08-23T13:22:58.390Z,9.82
2022-08-23T13:25:31.901Z,11.05
2022-08-23T13:28:03.377Z,10.50
2022-08-23T13:30:33.654Z,10.23
2022-08-23T13:33:21.925Z,10.70
2022-08-23T13:35:51.395Z,11.02
2022-08-23T13:38:23.644Z,10.60
2022-08-23T13:41:03.481Z,10.82
2022-08-23T13:43:36.310Z,10.98
2022-08-23T13:46:15.738Z,11.90
2022-08-23T13:48:49.959Z,10.18
2022-08-23T13:51:20.622Z,11.20
2022-08-23T13:53:48.461Z,11.00
2022-08-23T13:56:17.628Z,10.88
2022-08-23T13:58:54.995Z,10.70
2022-08-23T14:01:23.086Z,10.55
2022-08-23T14:03:51.213Z,10.68
2022-08-23T14:06:19.697Z,11.13
2022-08-23T14:08:48.221Z,11.77
2022-08-23T14:11:17.630Z,11.32
2022-08-23T14:13:48.626Z,11.55
2022-08-23T14:16:40.072Z,12.65
2022-08-23T14:19:54.865Z,10.52
2022-08-23T14:21:58.590Z,10.23
2022-08-23T14:24:27.137Z,9.75
2022-08-23T14:26:57.629Z,10.57
2022-08-23T14:29:28.237Z,9.48
2022-08-23T14:31:57.733Z,10.95
2022-08-23T14:34:26.561Z,11.65
2022-08-23T14:39:42.889Z,14.18
2022-08-23T14:42:14.023Z,15.98
2022-08-23T14:44:42.520Z,14.95
2022-08-23T14:47:10.740Z,17.42
2022-08-23T14:49:38.689Z,16.38
2022-08-23T14:52:07.306Z,15.90
2022-08-23T14:54:35.879Z,15.73
2022-08-23T14:57:04.047Z,15.45
2022-08-23T14:59:33.228Z,13.85
2022-08-23T15:02:01.968Z,17.75
2022-08-23T15:04:34.514Z,13.68
2022-08-23T15:07:19.822Z,14.63
2022-08-23T15:09:54.429Z,13.80
2022-08-23T15:15:16.602Z,14.60
2022-08-23T15:17:52.197Z,13.57
2022-08-23T15:20:21.008Z,14.15
2022-08-23T15:22:55.056Z,15.27
2022-08-23T15:25:25.416Z,12.32
2022-08-23T15:27:54.026Z,12.77
2022-08-23T15:30:24.577Z,12.90
2022-08-23T15:32:56.562Z,13.50
2022-08-23T15:35:26.534Z,13.73
2022-08-23T15:37:57.211Z,13.18
2022-08-23T15:40:26.116Z,13.48
2022-08-23T15:42:54.449Z,14.13
2022-08-23T15:45:24.006Z,12.65
2022-08-23T15:47:54.851Z,14.48
2022-08-23T15:50:26.024Z,14.43
2022-08-23T15:52:54.598Z,15.60
2022-08-23T15:55:24.818Z,14.40
2022-08-23T15:57:54.783Z,14.80
2022-08-23T16:00:24.893Z,14.50
2022-08-23T16:03:19.176Z,16.23
2022-08-23T16:05:44.403Z,15.93
2022-08-23T16:08:18.377Z,17.50
2022-08-23T16:10:46.733Z,17.50
2022-08-23T16:13:15.085Z,18.02
2022-08-23T16:15:44.480Z,16.65
2022-08-23T16:18:12.523Z,15.82
2022-08-23T16:20:40.743Z,15.95
2022-08-23T16:23:08.947Z,16.73
2022-08-23T16:25:37.114Z,16.05
2022-08-23T16:28:07.221Z,15.80
2022-08-23T16:30:35.503Z,17.48
2022-08-23T16:33:05.100Z,17.73
2022-08-23T16:35:33.148Z,16.95
2022-08-23T16:38:00.885Z,18.23
2022-08-23T16:40:28.693Z,18.33
2022-08-23T16:42:57.362Z,18.55
2022-08-23T16:45:25.953Z,18.45
2022-08-23T16:47:54.498Z,18.45
2022-08-23T16:50:23.991Z,19.05
2022-08-23T16:52:51.994Z,18.67
2022-08-23T16:55:19.943Z,17.98
2022-08-23T16:57:47.920Z,19.38
2022-08-23T17:00:16.273Z,19.85
2022-08-23T17:02:44.639Z,18.15
2022-08-23T17:05:16.446Z,20.42
2022-08-23T17:07:46.028Z,19.08
2022-08-23T17:10:16.908Z,21.17
2022-08-23T17:12:48.864Z,19.93
2022-08-23T17:15:20.668Z,20.50
2022-08-23T17:17:49.270Z,25.58
2022-08-23T17:20:18.375Z,21.23
2022-08-23T17:22:49.235Z,20.55
2022-08-23T17:25:18.174Z,23.60
2022-08-23T17:27:47.249Z,23.48
2022-08-23T17:30:17.941Z,24.27
2022-08-23T17:32:47.644Z,24.02
2022-08-23T17:35:17.652Z,25.60
2022-08-23T17:37:47.198Z,22.65
2022-08-23T17:40:21.102Z,23.25
2022-08-23T17:42:49.796Z,22.00
2022-08-23T17:45:18.872Z,25.52
2022-08-23T17:47:47.005Z,24.00
2022-08-23T17:50:16.137Z,29.25
2022-08-23T17:52:44.979Z,22.83
2022-08-23T17:55:17.137Z,23.05
2022-08-23T17:57:48.368Z,23.35
2022-08-23T18:00:18.749Z,29.98
2022-08-23T18:02:46.571Z,25.33
2022-08-23T18:05:14.704Z,28.50
2022-08-23T18:07:42.561Z,26.98
2022-08-23T18:10:12.322Z,26.40
2022-08-23T18:12:41.882Z,32.20
2022-08-23T18:15:11.328Z,34.10
2022-08-23T18:17:40.149Z,28.48
2022-08-23T18:20:11.636Z,36.40
2022-08-23T18:22:40.231Z,31.27
2022-08-23T18:25:09.820Z,28.10
2022-08-23T18:27:55.923Z,35.35
2022-08-23T18:30:26.372Z,33.15
2022-08-23T18:32:54.718Z,32.88
2022-08-23T18:35:25.752Z,37.42
2022-08-23T18:37:54.362Z,32.08
2022-08-23T18:40:22.555Z,34.05
2022-08-23T18:42:50.894Z,37.22
2022-08-23T18:45:19.309Z,37.80
2022-08-23T18:47:51.497Z,36.25
2022-08-23T18:50:19.757Z,38.63
2022-08-23T18:52:47.638Z,38.92
2022-08-23T18:55:17.485Z,34.83
2022-08-23T18:57:45.337Z,35.95
2022-08-23T19:00:13.928Z,34.88
2022-08-23T19:02:42.048Z,36.97
2022-08-23T19:05:11.254Z,39.63
2022-08-23T19:07:39.089Z,37.38
2022-08-23T19:10:08.278Z,41.75
2022-08-23T19:12:36.146Z,43.53
2022-08-23T19:15:04.820Z,40.30
2022-08-23T19:17:33.080Z,47.88
2022-08-23T19:20:01.188Z,47.08
2022-08-23T19:22:30.297Z,41.40
2022-08-23T19:24:58.241Z,43.40
2022-08-23T19:27:26.270Z,44.30
2022-08-23T19:29:54.202Z,41.55
2022-08-23T19:32:24.885Z,47.63
2022-08-23T19:34:52.905Z,46.70
2022-08-23T19:37:23.197Z,46.55
2022-08-23T19:39:53.031Z,52.40
2022-08-23T19:42:21.504Z,50.45
2022-08-23T19:44:49.499Z,55.72
2022-08-23T19:47:20.340Z,48.75
2022-08-23T19:49:49.562Z,52.40
2022-08-23T19:52:17.524Z,56.22
2022-08-23T19:54:45.575Z,54.50
2022-08-23T19:57:14.868Z,62.90
2022-08-23T19:59:42.839Z,62.30
2022-08-23T20:02:13.787Z,69.68
2022-08-23T20:04:42.479Z,71.18
2022-08-23T20:07:10.330Z,72.35
2022-08-23T20:09:38.353Z,73.10
2022-08-23T20:12:06.546Z,76.25
2022-08-23T20:14:36.327Z,75.88
2022-08-23T20:17:07.365Z,65.55
2022-08-23T20:19:36.043Z,71.57
2022-08-23T20:22:18.543Z,71.03
2022-08-23T20:24:52.166Z,76.57
2022-08-23T20:27:28.404Z,80.20
2022-08-23T20:30:01.244Z,78.78
2022-08-23T20:32:29.735Z,79.20
2022-08-23T20:34:57.569Z,85.63
2022-08-23T20:37:25.630Z,79.78
2022-08-23T20:39:53.469Z,84.32
2022-08-23T20:42:21.430Z,76.13
2022-08-23T20:44:49.431Z,86.18
2022-08-23T20:47:18.952Z,77.63
2022-08-23T20:49:46.773Z,78.22
2022-08-23T20:52:16.599Z,84.25
2022-08-23T20:54:44.887Z,91.88
2022-08-23T20:57:12.833Z,84.90
2022-08-23T20:59:44.421Z,86.30
2022-08-23T21:02:12.928Z,83.85
2022-08-23T21:04:42.416Z,83.95
2022-08-23T21:07:10.389Z,89.32
2022-08-23T21:09:38.147Z,94.18
2022-08-23T21:12:06.442Z,87.93
2022-08-23T21:14:34.473Z,85.00
2022-08-23T21:17:02.398Z,89.38
2022-08-23T21:19:31.279Z,98.93
2022-08-23T21:22:00.996Z,97.45
2022-08-23T21:24:29.067Z,94.38
2022-08-23T21:26:57.228Z,91.82
2022-08-23T21:29:25.036Z,96.75
2022-08-23T21:31:53.882Z,94.35
2022-08-23T21:34:21.863Z,96.13
2022-08-23T21:36:51.193Z,106.22
2022-08-23T21:39:20.311Z,94.85
2022-08-23T21:41:49.199Z,101.07
2022-08-23T21:44:19.241Z,107.00
2022-08-23T21:46:48.153Z,96.95
2022-08-23T21:49:17.053Z,97.38
2022-08-23T21:51:45.976Z,106.68
2022-08-23T21:54:14.782Z,104.63
2022-08-23T21:56:45.752Z,97.57
2022-08-23T21:59:16.666Z,98.10
2022-08-23T22:01:45.117Z,97.80
2022-08-23T22:04:14.626Z,105.75
2022-08-23T22:06:44.847Z,95.57
2022-08-23T22:09:16.493Z,91.72
2022-08-23T22:11:47.462Z,105.25
2022-08-23T22:14:19.944Z,89.43
2022-08-23T22:16:49.346Z,99.03
2022-08-23T22:19:23.466Z,97.57
2022-08-23T22:21:52.418Z,99.95
2022-08-23T22:24:25.550Z,97.78
2022-08-23T22:26:56.390Z,94.18
2022-08-23T22:29:24.744Z,104.20
2022-08-23T22:31:52.554Z,98.03
2022-08-23T22:34:20.929Z,88.82
2022-08-23T22:36:52.455Z,98.53
2022-08-23T22:39:21.148Z,89.47
2022-08-23T22:41:49.873Z,95.22
2022-08-23T22:44:19.369Z,96.53
2022-08-23T22:46:47.379Z,95.80
2022-08-23T22:49:15.485Z,98.45
2022-08-23T22:51:43.444Z,95.60
2022-08-23T22:54:12.345Z,89.53
2022-08-23T22:56:42.652Z,94.45
2022-08-23T22:59:11.145Z,89.60
2022-08-23T23:01:44.261Z,86.90
2022-08-23T23:04:14.634Z,82.63
2022-08-23T23:06:43.034Z,94.22
2022-08-23T23:09:13.375Z,92.47
2022-08-23T23:11:42.477Z,100.78
2022-08-23T23:14:12.212Z,85.40
2022-08-23T23:16:49.312Z,107.88
2022-08-23T23:19:35.854Z,95.35
2022-08-23T23:22:04.535Z,100.45
2022-08-23T23:24:34.820Z,106.28
2022-08-23T23:27:03.513Z,112.40
2022-08-23T23:29:32.398Z,96.82
2022-08-23T23:32:01.833Z,101.38
2022-08-23T23:34:29.913Z,96.53
2022-08-23T23:36:58.947Z,98.60
2022-08-23T23:39:27.407Z,91.75
2022-08-23T23:41:55.938Z,98.88
2022-08-23T23:44:31.282Z,91.55
2022-08-23T23:47:02.141Z,93.47
2022-08-23T23:49:32.805Z,92.85
2022-08-23T23:52:03.391Z,90.43
2022-08-23T23:54:31.931Z,91.15
2022-08-23T23:57:00.127Z,92.68
2022-08-23T23:59:28.514Z,91.00
